createdAt,value
2019-05-07T00:00:53.059Z,9.50
2019-05-07T00:03:22.067Z,9.80
2019-05-07T00:05:53.699Z,10.17
2019-05-07T00:08:22.796Z,9.10
2019-05-07T00:10:52.895Z,10.00
2019-05-07T00:13:22.713Z,9.90
2019-05-07T00:15:52.793Z,9.80
2019-05-07T00:18:22.972Z,10.10
2019-05-07T00:20:52.961Z,9.77
2019-05-07T00:23:23.151Z,9.57
2019-05-07T00:25:52.910Z,9.43
2019-05-07T00:28:23.028Z,10.07
2019-05-07T00:30:52.169Z,9.27
2019-05-07T00:33:22.571Z,9.33
2019-05-07T00:36:04.299Z,10.00
2019-05-07T00:38:34.371Z,9.63
2019-05-07T00:41:04.389Z,9.17
2019-05-07T00:43:33.780Z,10.10
2019-05-07T00:46:03.822Z,9.80
2019-05-07T00:48:32.997Z,10.03
2019-05-07T00:51:18.937Z,10.10
2019-05-07T00:53:47.327Z,9.73
2019-05-07T00:56:15.760Z,9.27
2019-05-07T00:58:44.174Z,9.97
2019-05-07T01:01:13.141Z,9.60
2019-05-07T01:03:42.463Z,9.53
2019-05-07T01:06:12.886Z,10.30
2019-05-07T01:08:43.040Z,9.60
2019-05-07T01:11:13.148Z,9.80
2019-05-07T01:13:43.134Z,9.60
2019-05-07T01:16:12.908Z,10.40
2019-05-07T01:18:42.103Z,10.17
2019-05-07T01:21:13.077Z,9.83
2019-05-07T01:23:42.790Z,9.33
2019-05-07T01:26:12.452Z,9.93
2019-05-07T01:28:59.071Z,10.20
2019-05-07T01:31:32.865Z,10.37
2019-05-07T01:34:02.974Z,9.93
2019-05-07T01:36:31.950Z,10.07
2019-05-07T01:39:02.548Z,10.40
2019-05-07T01:41:32.603Z,10.10
2019-05-07T01:44:02.073Z,10.17
2019-05-07T01:46:32.491Z,10.30
2019-05-07T01:49:02.902Z,10.43
2019-05-07T01:51:32.692Z,10.23
2019-05-07T01:54:02.200Z,9.63
2019-05-07T01:56:32.996Z,10.17
2019-05-07T01:59:02.402Z,9.47
2019-05-07T02:01:33.135Z,9.93
2019-05-07T02:04:12.746Z,10.07
2019-05-07T02:06:58.992Z,10.60
2019-05-07T02:09:33.906Z,10.20
2019-05-07T02:12:03.610Z,10.23
2019-05-07T02:14:32.987Z,11.53
2019-05-07T02:17:02.956Z,10.43
2019-05-07T02:19:32.963Z,10.17
2019-05-07T02:22:02.844Z,10.33
2019-05-07T02:24:33.688Z,10.33
2019-05-07T02:27:03.006Z,10.10
2019-05-07T02:29:32.439Z,10.63
2019-05-07T02:32:04.278Z,11.17
2019-05-07T02:34:33.892Z,10.67
2019-05-07T02:37:03.996Z,10.00
2019-05-07T02:39:33.515Z,10.83
2019-05-07T02:42:03.691Z,9.97
2019-05-07T02:44:33.887Z,10.47
2019-05-07T02:47:23.524Z,11.30
2019-05-07T02:49:53.585Z,10.27
2019-05-07T02:52:43.394Z,11.10
2019-05-07T02:55:13.456Z,10.20
2019-05-07T02:57:43.487Z,10.97
2019-05-07T03:00:14.587Z,10.63
2019-05-07T03:02:43.699Z,11.37
2019-05-07T03:05:13.626Z,10.63
2019-05-07T03:07:42.885Z,10.90
2019-05-07T03:10:13.825Z,10.73
2019-05-07T03:12:43.071Z,10.53
2019-05-07T03:15:13.193Z,10.67
2019-05-07T03:17:42.954Z,9.93
2019-05-07T03:20:13.974Z,11.43
2019-05-07T03:22:42.994Z,10.33
2019-05-07T03:25:16.634Z,10.63
2019-05-07T03:27:45.092Z,10.90
2019-05-07T03:30:17.023Z,11.43
2019-05-07T03:32:49.827Z,10.73
2019-05-07T03:35:19.933Z,10.83
2019-05-07T03:37:48.438Z,11.47
2019-05-07T03:40:17.012Z,11.73
2019-05-07T03:42:45.479Z,11.47
2019-05-07T03:45:18.632Z,11.27
2019-05-07T03:47:48.708Z,11.20
2019-05-07T03:50:17.208Z,10.80
2019-05-07T03:52:45.605Z,11.13
2019-05-07T03:55:14.795Z,10.80
2019-05-07T03:57:43.971Z,11.43
2019-05-07T04:00:13.564Z,11.67
2019-05-07T04:02:43.834Z,11.40
2019-05-07T04:05:13.952Z,11.23
2019-05-07T04:07:43.244Z,11.70
2019-05-07T04:10:14.648Z,11.13
2019-05-07T04:12:44.122Z,11.30
2019-05-07T04:15:14.568Z,10.87
2019-05-07T04:17:46.575Z,11.30
2019-05-07T04:20:15.431Z,11.43
2019-05-07T04:22:43.930Z,11.20
2019-05-07T04:25:16.801Z,11.10
2019-05-07T04:27:55.599Z,12.30
2019-05-07T04:30:24.159Z,11.40
2019-05-07T04:32:54.244Z,11.57
2019-05-07T04:35:35.126Z,11.70
2019-05-07T04:38:06.967Z,11.53
2019-05-07T04:40:34.070Z,11.53
2019-05-07T04:43:02.948Z,11.80
2019-05-07T04:45:33.735Z,12.00
2019-05-07T04:48:03.127Z,11.67
2019-05-07T04:50:42.576Z,11.70
2019-05-07T04:53:03.478Z,11.63
2019-05-07T04:55:33.406Z,11.87
2019-05-07T04:58:04.545Z,12.10
2019-05-07T05:00:33.627Z,11.60
2019-05-07T05:03:12.665Z,11.47
2019-05-07T05:05:39.865Z,11.10
2019-05-07T05:08:08.249Z,12.80
2019-05-07T05:10:36.649Z,12.25
2019-05-07T05:13:05.110Z,12.03
2019-05-07T05:15:33.502Z,12.10
2019-05-07T05:18:02.673Z,11.20
2019-05-07T05:20:33.651Z,11.63
2019-05-07T05:23:03.799Z,12.63
2019-05-07T05:25:43.095Z,12.23
2019-05-07T05:28:12.489Z,13.10
2019-05-07T05:30:42.688Z,13.07
2019-05-07T05:33:12.534Z,12.37
2019-05-07T05:35:43.082Z,13.00
2019-05-07T05:38:12.628Z,12.60
2019-05-07T05:40:42.727Z,13.20
2019-05-07T05:43:22.490Z,12.80
2019-05-07T05:45:53.091Z,11.90
2019-05-07T05:48:22.406Z,12.27
2019-05-07T05:51:07.460Z,11.37
2019-05-07T05:53:37.493Z,13.40
2019-05-07T05:56:07.544Z,13.80
2019-05-07T05:58:40.246Z,13.60
2019-05-07T06:01:10.276Z,13.07
2019-05-07T06:03:43.285Z,14.17
2019-05-07T06:06:16.477Z,14.17
2019-05-07T06:08:56.094Z,13.77
2019-05-07T06:11:26.128Z,13.33
2019-05-07T06:14:08.144Z,14.43
2019-05-07T06:16:42.047Z,13.93
2019-05-07T06:19:15.051Z,13.77
2019-05-07T06:21:52.627Z,14.33
2019-05-07T06:24:22.805Z,15.90
2019-05-07T06:26:52.211Z,14.00
2019-05-07T06:29:22.977Z,13.63
2019-05-07T06:31:52.899Z,15.00
2019-05-07T06:34:21.976Z,14.47
2019-05-07T06:36:52.606Z,15.07
2019-05-07T06:39:22.294Z,15.50
2019-05-07T06:42:08.770Z,15.13
2019-05-07T06:44:37.160Z,16.47
2019-05-07T06:47:05.628Z,17.60
2019-05-07T06:49:34.026Z,16.30
2019-05-07T06:52:02.974Z,16.93
2019-05-07T06:54:32.123Z,17.87
2019-05-07T06:57:02.028Z,16.53
2019-05-07T06:59:34.595Z,16.80
2019-05-07T07:02:05.712Z,18.00
2019-05-07T07:04:36.087Z,17.17
2019-05-07T07:07:06.178Z,17.23
2019-05-07T07:09:45.226Z,16.77
2019-05-07T07:12:25.944Z,17.07
2019-05-07T07:14:54.061Z,17.27
2019-05-07T07:17:22.465Z,16.03
2019-05-07T07:19:52.340Z,17.30
2019-05-07T07:22:22.287Z,16.17
2019-05-07T07:24:53.011Z,16.00
2019-05-07T07:27:22.677Z,16.53
2019-05-07T07:29:55.082Z,16.70
2019-05-07T07:32:34.169Z,16.40
2019-05-07T07:35:02.629Z,15.87
2019-05-07T07:37:43.083Z,17.00
2019-05-07T07:40:27.707Z,14.90
2019-05-07T07:42:56.094Z,13.93
2019-05-07T07:45:24.481Z,13.77
2019-05-07T07:47:53.157Z,14.20
2019-05-07T07:50:22.621Z,14.20
2019-05-07T07:52:52.967Z,14.57
2019-05-07T07:55:22.834Z,14.10
2019-05-07T07:58:02.541Z,12.57
2019-05-07T08:00:32.902Z,12.73
2019-05-07T08:03:02.999Z,12.90
2019-05-07T08:05:32.571Z,13.77
2019-05-07T08:08:02.272Z,13.03
2019-05-07T08:10:32.556Z,12.57
2019-05-07T08:13:01.992Z,10.60
2019-05-07T08:15:32.837Z,11.07
2019-05-07T08:18:02.851Z,9.43
2019-05-07T08:20:32.639Z,10.60
2019-05-07T08:23:02.884Z,10.47
2019-05-07T08:25:52.211Z,10.80
2019-05-07T08:28:22.791Z,9.53
2019-05-07T08:30:55.065Z,9.90
2019-05-07T08:33:32.266Z,9.80
2019-05-07T08:36:05.053Z,10.00
2019-05-07T08:38:35.071Z,8.97
2019-05-07T08:41:03.467Z,9.50
2019-05-07T08:43:32.282Z,8.83
2019-05-07T08:46:17.286Z,7.97
2019-05-07T08:48:47.465Z,7.50
2019-05-07T08:51:15.921Z,8.13
2019-05-07T08:53:44.312Z,7.63
2019-05-07T08:56:12.694Z,7.43
2019-05-07T08:58:42.064Z,6.00
2019-05-07T09:01:11.903Z,6.67
2019-05-07T09:03:43.346Z,7.30
2019-05-07T09:06:13.421Z,7.10
2019-05-07T09:08:43.635Z,6.50
2019-05-07T09:11:13.373Z,6.33
2019-05-07T09:13:42.152Z,6.37
2019-05-07T09:16:12.963Z,6.60
2019-05-07T09:18:42.213Z,6.40
2019-05-07T09:21:12.531Z,6.17
2019-05-07T09:23:42.426Z,6.33
2019-05-07T09:26:13.076Z,6.40
2019-05-07T09:28:58.423Z,6.97
2019-05-07T09:31:44.509Z,6.40
2019-05-07T09:34:12.892Z,6.57
2019-05-07T09:36:42.918Z,7.07
2019-05-07T09:39:12.095Z,7.27
2019-05-07T09:41:41.775Z,6.90
2019-05-07T09:44:11.957Z,6.60
2019-05-07T09:46:42.893Z,6.80
2019-05-07T09:49:12.049Z,6.60
2019-05-07T09:51:42.579Z,7.20
2019-05-07T09:54:12.592Z,7.13
2019-05-07T09:56:42.231Z,6.90
2019-05-07T09:59:12.532Z,6.77
2019-05-07T10:01:40.937Z,6.17
2019-05-07T10:04:09.331Z,6.30
2019-05-07T10:06:37.883Z,6.27
2019-05-07T10:09:06.907Z,6.07
2019-05-07T10:11:37.008Z,6.10
2019-05-07T10:14:12.671Z,5.20
2019-05-07T10:16:58.484Z,6.00
2019-05-07T10:19:27.013Z,5.03
2019-05-07T10:21:55.632Z,5.07
2019-05-07T10:24:24.013Z,4.63
2019-05-07T10:26:53.143Z,4.93
2019-05-07T10:29:22.693Z,4.77
2019-05-07T10:31:52.735Z,4.87
2019-05-07T10:34:22.851Z,4.80
2019-05-07T10:36:52.351Z,4.20
2019-05-07T10:39:22.045Z,5.00
2019-05-07T10:41:50.548Z,6.00
2019-05-07T10:44:22.790Z,5.73
2019-05-07T10:47:08.755Z,5.70
2019-05-07T10:49:38.829Z,5.23
2019-05-07T10:52:07.244Z,5.00
2019-05-07T10:54:35.628Z,4.70
2019-05-07T10:57:04.211Z,5.70
2019-05-07T10:59:32.592Z,4.87
2019-05-07T11:02:02.616Z,5.07
2019-05-07T11:04:40.172Z,5.13
2019-05-07T11:07:01.118Z,5.27
2019-05-07T11:09:29.503Z,5.20
2019-05-07T11:11:57.891Z,4.83
2019-05-07T11:14:26.270Z,5.07
2019-05-07T11:16:59.242Z,4.53
2019-05-07T11:19:27.625Z,5.57
2019-05-07T11:21:56.014Z,5.37
2019-05-07T11:24:24.389Z,5.57
2019-05-07T11:26:53.187Z,5.40
2019-05-07T11:29:22.091Z,5.60
2019-05-07T11:31:52.420Z,5.50
2019-05-07T11:34:22.050Z,5.00
2019-05-07T11:36:52.402Z,5.40
2019-05-07T11:39:22.598Z,5.70
2019-05-07T11:41:52.405Z,5.77
2019-05-07T11:44:22.977Z,6.00
2019-05-07T11:47:12.347Z,6.07
2019-05-07T11:49:58.448Z,5.10
2019-05-07T11:52:32.334Z,5.40
2019-05-07T11:55:00.208Z,5.60
2019-05-07T11:57:28.569Z,6.03
2019-05-07T11:59:56.965Z,5.80
2019-05-07T12:02:25.352Z,5.40
2019-05-07T12:04:53.735Z,5.53
2019-05-07T12:07:22.447Z,5.80
2019-05-07T12:09:52.616Z,5.70
2019-05-07T12:12:22.186Z,5.80
2019-05-07T12:14:51.848Z,5.80
2019-05-07T12:17:22.262Z,5.50
2019-05-07T12:19:52.564Z,5.57
2019-05-07T12:22:31.761Z,5.47
2019-05-07T12:25:02.499Z,5.53
2019-05-07T12:27:32.206Z,5.37
2019-05-07T12:30:00.402Z,5.27
2019-05-07T12:32:33.186Z,4.90
2019-05-07T12:35:02.444Z,4.77
2019-05-07T12:37:32.007Z,5.20
2019-05-07T12:40:01.848Z,5.30
2019-05-07T12:42:30.348Z,5.13
2019-05-07T12:44:58.735Z,5.30
2019-05-07T12:47:27.126Z,5.20
2019-05-07T12:49:55.510Z,5.13
2019-05-07T12:52:25.539Z,4.57
2019-05-07T12:54:58.226Z,5.70
2019-05-07T12:57:26.683Z,4.70
2019-05-07T12:59:56.706Z,5.13
2019-05-07T13:02:38.102Z,5.30
2019-05-07T13:04:59.589Z,5.20
2019-05-07T13:07:29.614Z,4.80
2019-05-07T13:09:57.995Z,4.87
2019-05-07T13:12:26.392Z,5.80
2019-05-07T13:14:54.815Z,5.57
2019-05-07T13:17:23.217Z,5.30
2019-05-07T13:19:52.461Z,5.10
2019-05-07T13:22:21.967Z,5.30
2019-05-07T13:24:50.392Z,5.33
2019-05-07T13:27:18.777Z,5.30
2019-05-07T13:29:47.815Z,5.60
2019-05-07T13:32:16.527Z,5.07
2019-05-07T13:34:45.752Z,5.30
2019-05-07T13:37:16.010Z,5.10
2019-05-07T13:39:58.562Z,5.20
2019-05-07T13:42:31.988Z,5.17
2019-05-07T13:45:05.101Z,4.50
2019-05-07T13:47:35.270Z,5.00
2019-05-07T13:50:05.082Z,5.40
2019-05-07T13:52:33.803Z,5.30
2019-05-07T13:55:02.266Z,5.58
2019-05-07T13:57:32.201Z,5.73
2019-05-07T14:00:02.369Z,5.53
2019-05-07T14:02:32.201Z,5.17
2019-05-07T14:05:01.537Z,5.20
2019-05-07T14:07:32.240Z,5.07
2019-05-07T14:10:02.088Z,5.37
2019-05-07T14:12:33.504Z,5.93
2019-05-07T14:15:02.168Z,5.10
2019-05-07T14:17:30.690Z,5.73
2019-05-07T14:19:59.159Z,5.90
2019-05-07T14:22:27.543Z,5.67
2019-05-07T14:24:55.924Z,5.73
2019-05-07T14:27:24.311Z,5.27
2019-05-07T14:29:52.697Z,5.90
2019-05-07T14:32:22.898Z,6.40
2019-05-07T14:35:07.940Z,5.80
2019-05-07T14:37:41.840Z,5.83
2019-05-07T14:40:12.765Z,6.20
2019-05-07T14:42:45.600Z,6.10
2019-05-07T14:45:14.635Z,5.70
2019-05-07T14:47:44.740Z,5.60
2019-05-07T14:50:13.502Z,5.87
2019-05-07T14:52:43.266Z,5.90
2019-05-07T14:55:12.800Z,5.90
2019-05-07T14:57:42.121Z,5.67
2019-05-07T15:00:12.207Z,5.30
2019-05-07T15:02:42.176Z,5.43
2019-05-07T15:05:11.982Z,5.77
2019-05-07T15:07:41.804Z,6.00
2019-05-07T15:10:11.047Z,5.40
2019-05-07T15:12:39.513Z,6.58
2019-05-07T15:15:09.131Z,5.67
2019-05-07T15:17:57.344Z,5.93
2019-05-07T15:20:25.801Z,6.30
2019-05-07T15:23:07.773Z,5.67
2019-05-07T15:25:36.322Z,6.00
2019-05-07T15:28:04.751Z,5.50
2019-05-07T15:30:34.848Z,6.20
2019-05-07T15:33:03.222Z,6.00
2019-05-07T15:35:31.994Z,6.00
2019-05-07T15:38:02.498Z,6.28
2019-05-07T15:40:32.817Z,5.63
2019-05-07T15:43:02.121Z,5.93
2019-05-07T15:45:30.658Z,5.63
2019-05-07T15:47:59.143Z,6.57
2019-05-07T15:50:29.161Z,5.90
2019-05-07T15:52:59.250Z,5.83
2019-05-07T15:55:27.629Z,5.67
2019-05-07T15:57:56.659Z,6.17
2019-05-07T16:00:29.701Z,6.23
2019-05-07T16:03:05.487Z,6.27
2019-05-07T16:05:34.058Z,5.50
2019-05-07T16:08:04.135Z,6.40
2019-05-07T16:10:32.642Z,6.10
2019-05-07T16:13:01.250Z,6.43
2019-05-07T16:15:31.812Z,6.37
2019-05-07T16:18:02.780Z,6.17
2019-05-07T16:20:32.605Z,5.97
2019-05-07T16:23:14.017Z,6.10
2019-05-07T16:25:32.912Z,5.47
2019-05-07T16:28:02.098Z,6.00
2019-05-07T16:30:32.426Z,6.10
2019-05-07T16:33:02.154Z,5.97
2019-05-07T16:35:32.098Z,5.55
2019-05-07T16:38:00.606Z,6.43
2019-05-07T16:40:28.993Z,6.27
2019-05-07T16:43:16.722Z,6.90
2019-05-07T16:45:45.144Z,6.07
2019-05-07T16:48:13.534Z,6.10
2019-05-07T16:50:41.929Z,6.17
2019-05-07T16:53:12.175Z,5.90
2019-05-07T16:55:40.429Z,6.60
2019-05-07T16:58:20.320Z,5.80
2019-05-07T17:00:48.319Z,6.00
2019-05-07T17:03:21.054Z,5.50
2019-05-07T17:05:49.441Z,5.80
2019-05-07T17:08:19.463Z,5.40
2019-05-07T17:10:47.845Z,6.30
2019-05-07T17:13:16.234Z,6.13
2019-05-07T17:16:03.395Z,6.30
2019-05-07T17:18:32.632Z,7.70
2019-05-07T17:21:02.039Z,6.87
2019-05-07T17:23:43.690Z,7.90
2019-05-07T17:26:00.718Z,6.90
2019-05-07T17:28:29.109Z,6.83
2019-05-07T17:30:57.494Z,6.67
2019-05-07T17:33:25.881Z,7.20
2019-05-07T17:35:54.445Z,6.90
2019-05-07T17:38:23.246Z,7.10
2019-05-07T17:40:52.233Z,6.93
2019-05-07T17:43:21.994Z,7.20
2019-05-07T17:45:52.286Z,7.27
2019-05-07T17:48:23.045Z,7.43
2019-05-07T17:51:01.272Z,7.30
2019-05-07T17:53:31.882Z,6.77
2019-05-07T17:56:02.000Z,7.13
2019-05-07T17:58:29.904Z,7.77
2019-05-07T18:01:01.787Z,8.00
2019-05-07T18:03:34.537Z,8.03
2019-05-07T18:06:03.664Z,7.40
2019-05-07T18:08:32.751Z,8.13
2019-05-07T18:11:02.367Z,7.70
2019-05-07T18:13:32.338Z,7.70
2019-05-07T18:16:02.979Z,7.97
2019-05-07T18:18:32.820Z,7.80
2019-05-07T18:21:12.645Z,7.50
2019-05-07T18:23:46.923Z,7.93
2019-05-07T18:26:27.146Z,7.40
2019-05-07T18:28:45.432Z,7.80
2019-05-07T18:31:30.096Z,6.90
2019-05-07T18:33:59.650Z,7.63
2019-05-07T18:36:28.034Z,7.30
2019-05-07T18:38:56.416Z,7.03
2019-05-07T18:41:24.879Z,6.70
2019-05-07T18:43:54.698Z,6.73
2019-05-07T18:46:23.143Z,6.50
2019-05-07T18:48:51.924Z,6.63
2019-05-07T18:51:25.956Z,6.53
2019-05-07T18:53:54.350Z,7.27
2019-05-07T18:56:22.748Z,6.60
2019-05-07T18:58:52.087Z,6.67
2019-05-07T19:01:22.569Z,6.60
2019-05-07T19:03:52.580Z,6.63
2019-05-07T19:06:22.279Z,6.70
2019-05-07T19:08:52.537Z,6.97
2019-05-07T19:11:22.861Z,6.80
2019-05-07T19:13:52.505Z,7.27
2019-05-07T19:16:23.004Z,7.30
2019-05-07T19:18:51.590Z,7.53
2019-05-07T19:21:22.233Z,8.13
2019-05-07T19:23:50.331Z,8.53
2019-05-07T19:26:18.792Z,7.90
2019-05-07T19:28:47.185Z,9.33
2019-05-07T19:31:15.589Z,10.03
2019-05-07T19:33:45.867Z,10.93
2019-05-07T19:36:14.260Z,12.60
2019-05-07T19:38:42.653Z,11.50
2019-05-07T19:41:12.338Z,11.10
2019-05-07T19:43:41.913Z,10.10
2019-05-07T19:46:12.307Z,9.50
2019-05-07T19:48:40.554Z,9.17
2019-05-07T19:51:08.944Z,9.83
2019-05-07T19:53:39.041Z,9.63
2019-05-07T19:56:18.563Z,9.60
2019-05-07T19:58:47.013Z,9.63
2019-05-07T20:01:17.106Z,9.97
2019-05-07T20:03:48.325Z,9.73
2019-05-07T20:06:16.709Z,9.83
2019-05-07T20:08:45.111Z,11.03
2019-05-07T20:11:15.154Z,11.53
2019-05-07T20:13:43.867Z,11.68
2019-05-07T20:16:19.386Z,10.87
2019-05-07T20:18:48.053Z,11.20
2019-05-07T20:21:16.437Z,10.40
2019-05-07T20:23:44.822Z,9.87
2019-05-07T20:26:13.284Z,9.93
2019-05-07T20:28:41.948Z,10.57
2019-05-07T20:31:12.285Z,10.77
2019-05-07T20:33:42.276Z,10.63
2019-05-07T20:36:10.944Z,12.13
2019-05-07T20:38:39.345Z,12.10
2019-05-07T20:41:07.805Z,12.40
2019-05-07T20:43:36.205Z,12.17
2019-05-07T20:46:04.732Z,11.07
2019-05-07T20:48:33.137Z,10.97
2019-05-07T20:51:01.525Z,11.60
2019-05-07T20:53:48.005Z,10.80
2019-05-07T20:56:18.079Z,10.23
2019-05-07T20:58:46.495Z,10.37
2019-05-07T21:01:14.913Z,11.75
2019-05-07T21:03:43.275Z,11.63
2019-05-07T21:06:11.780Z,11.47
2019-05-07T21:08:40.181Z,11.37
2019-05-07T21:11:08.621Z,10.50
2019-05-07T21:13:37.068Z,9.87
2019-05-07T21:16:06.216Z,10.53
2019-05-07T21:18:34.618Z,11.13
2019-05-07T21:21:03.036Z,11.33
2019-05-07T21:23:32.563Z,10.73
2019-05-07T21:26:02.181Z,10.77
2019-05-07T21:28:32.357Z,10.00
2019-05-07T21:31:02.758Z,10.57
2019-05-07T21:33:32.243Z,10.37
2019-05-07T21:36:02.721Z,10.83
2019-05-07T21:38:32.651Z,10.93
2019-05-07T21:41:00.885Z,11.07
2019-05-07T21:43:29.264Z,10.90
2019-05-07T21:45:57.730Z,10.47
2019-05-07T21:48:26.176Z,11.23
2019-05-07T21:50:55.096Z,11.73
2019-05-07T21:53:28.068Z,11.33
2019-05-07T21:56:13.930Z,11.30
2019-05-07T21:58:46.529Z,11.83
2019-05-07T22:01:16.637Z,12.27
2019-05-07T22:03:47.047Z,11.40
2019-05-07T22:06:15.448Z,12.07
2019-05-07T22:08:43.872Z,11.93
2019-05-07T22:11:12.555Z,11.03
2019-05-07T22:13:43.267Z,11.47
2019-05-07T22:16:13.060Z,11.97
2019-05-07T22:18:42.666Z,11.60
2019-05-07T22:21:12.386Z,11.70
2019-05-07T22:23:42.842Z,13.50
2019-05-07T22:26:20.001Z,12.53
2019-05-07T22:28:42.038Z,12.30
2019-05-07T22:31:29.797Z,11.17
2019-05-07T22:34:02.019Z,10.60
2019-05-07T22:36:29.929Z,11.13
2019-05-07T22:38:58.325Z,10.50
2019-05-07T22:41:26.724Z,11.43
2019-05-07T22:43:55.164Z,10.87
2019-05-07T22:46:23.572Z,11.10
2019-05-07T22:48:51.955Z,10.73
2019-05-07T22:51:22.698Z,10.57
2019-05-07T22:53:50.566Z,10.47
2019-05-07T22:56:31.878Z,10.37
2019-05-07T22:58:50.805Z,10.50
2019-05-07T23:01:19.463Z,9.93
2019-05-07T23:03:47.891Z,11.07
2019-05-07T23:06:16.323Z,10.90
2019-05-07T23:08:44.724Z,11.27
2019-05-07T23:11:13.227Z,10.60
2019-05-07T23:13:42.661Z,10.60
2019-05-07T23:16:12.555Z,11.03
2019-05-07T23:18:42.931Z,10.63
2019-05-07T23:21:11.346Z,11.70
2019-05-07T23:23:42.038Z,10.70
2019-05-07T23:26:12.254Z,10.90
2019-05-07T23:28:41.839Z,11.17
2019-05-07T23:31:12.135Z,11.13
2019-05-07T23:33:40.244Z,10.77
2019-05-07T23:36:08.668Z,10.40
2019-05-07T23:38:37.094Z,10.97
2019-05-07T23:41:12.880Z,10.73
2019-05-07T23:43:42.386Z,10.00
2019-05-07T23:46:12.786Z,10.10
2019-05-07T23:48:42.743Z,10.80
2019-05-07T23:51:12.593Z,11.40
2019-05-07T23:53:44.199Z,11.43
2019-05-07T23:56:13.128Z,11.13
2019-05-07T23:58:42.010Z,11.57
